createdAt,value
2022-10-02T00:00:00.209Z,70.10
2022-10-02T00:02:55.756Z,70.00
2022-10-02T00:05:51.455Z,70.00
2022-10-02T00:08:31.071Z,69.70
2022-10-02T00:11:03.334Z,69.70
2022-10-02T00:13:47.114Z,69.50
2022-10-02T00:16:24.522Z,69.70
2022-10-02T00:18:53.858Z,69.40
2022-10-02T00:21:52.714Z,69.30
2022-10-02T00:24:25.496Z,69.30
2022-10-02T00:27:05.705Z,69.20
2022-10-02T00:29:45.390Z,69.30
2022-10-02T00:32:36.286Z,69.20
2022-10-02T00:35:25.119Z,69.30
2022-10-02T00:38:05.261Z,69.30
2022-10-02T00:41:10.858Z,69.30
2022-10-02T00:43:43.488Z,69.40
2022-10-02T00:46:28.645Z,69.40
2022-10-02T00:49:22.978Z,69.40
2022-10-02T00:52:10.423Z,69.40
2022-10-02T00:54:59.033Z,69.10
2022-10-02T00:57:25.741Z,69.10
2022-10-02T01:00:01.227Z,68.90
2022-10-02T01:02:36.673Z,68.80
2022-10-02T01:05:07.624Z,68.70
2022-10-02T01:07:38.917Z,68.70
2022-10-02T01:10:06.412Z,69.40
2022-10-02T01:12:33.100Z,68.90
2022-10-02T01:14:59.824Z,68.80
2022-10-02T01:17:34.520Z,68.70
2022-10-02T01:20:05.876Z,68.60
2022-10-02T01:22:41.591Z,68.50
2022-10-02T01:25:09.582Z,68.50
2022-10-02T01:27:39.302Z,68.50
2022-10-02T01:30:14.118Z,68.50
2022-10-02T01:32:57.856Z,68.60
2022-10-02T01:35:31.579Z,68.60
2022-10-02T01:38:00.350Z,68.50
2022-10-02T01:40:35.999Z,68.30
2022-10-02T01:43:12.672Z,68.20
2022-10-02T01:46:00.507Z,68.20
2022-10-02T01:49:06.123Z,68.30
2022-10-02T01:51:39.160Z,68.20
2022-10-02T01:54:18.057Z,68.20
2022-10-02T01:56:52.483Z,68.20
2022-10-02T01:59:24.931Z,68.20
2022-10-02T02:01:58.866Z,68.10
2022-10-02T02:04:34.092Z,68.10
2022-10-02T02:07:05.488Z,68.00
2022-10-02T02:09:42.591Z,68.00
2022-10-02T02:12:15.077Z,68.10
2022-10-02T02:14:50.554Z,68.10
2022-10-02T02:17:49.565Z,68.00
2022-10-02T02:20:22.664Z,67.90
2022-10-02T02:22:52.937Z,67.60
2022-10-02T02:25:25.327Z,67.30
2022-10-02T02:27:57.322Z,67.10
2022-10-02T02:30:25.278Z,67.10
2022-10-02T02:32:59.877Z,67.00
2022-10-02T02:35:41.458Z,67.00
2022-10-02T02:38:40.620Z,67.20
2022-10-02T02:41:13.674Z,67.00
2022-10-02T02:43:47.197Z,67.10
2022-10-02T02:46:32.521Z,66.90
2022-10-02T02:49:07.420Z,67.10
2022-10-02T02:51:40.939Z,67.00
2022-10-02T02:54:37.014Z,67.60
2022-10-02T02:57:06.288Z,67.30
2022-10-02T02:59:35.653Z,67.40
2022-10-02T03:02:02.464Z,67.40
2022-10-02T03:04:29.190Z,67.40
2022-10-02T03:07:00.784Z,67.40
2022-10-02T03:09:32.288Z,67.40
2022-10-02T03:12:05.133Z,67.20
2022-10-02T03:14:43.740Z,67.50
2022-10-02T03:17:52.879Z,66.80
2022-10-02T03:20:34.435Z,66.70
2022-10-02T03:23:30.429Z,66.80
2022-10-02T03:26:00.513Z,66.70
2022-10-02T03:28:54.414Z,66.60
2022-10-02T03:31:20.741Z,66.60
2022-10-02T03:33:48.603Z,66.90
2022-10-02T03:36:18.059Z,67.20
2022-10-02T03:38:53.427Z,67.30
2022-10-02T03:41:33.336Z,67.50
2022-10-02T03:44:00.186Z,67.80
2022-10-02T03:46:27.059Z,68.00
2022-10-02T03:48:56.438Z,68.30
2022-10-02T03:51:24.346Z,68.60
2022-10-02T03:53:52.124Z,68.90
2022-10-02T03:56:38.903Z,69.20
2022-10-02T03:59:13.879Z,69.50
2022-10-02T04:01:49.381Z,69.70
2022-10-02T04:04:26.891Z,69.50
2022-10-02T04:07:04.610Z,69.80
2022-10-02T04:09:41.968Z,69.90
2022-10-02T04:12:19.105Z,69.90
2022-10-02T04:14:57.249Z,69.60
2022-10-02T04:17:47.824Z,69.40
2022-10-02T04:20:21.431Z,69.30
2022-10-02T04:22:53.765Z,69.10
2022-10-02T04:25:24.601Z,69.00
2022-10-02T04:27:57.795Z,68.60
2022-10-02T04:30:24.646Z,68.50
2022-10-02T04:32:51.652Z,68.50
2022-10-02T04:35:47.482Z,68.20
2022-10-02T04:38:26.340Z,68.00
2022-10-02T04:41:20.349Z,67.80
2022-10-02T04:44:05.819Z,67.40
2022-10-02T04:46:54.831Z,67.20
2022-10-02T04:49:41.245Z,67.00
2022-10-02T04:52:32.053Z,67.00
2022-10-02T04:55:22.009Z,66.90
2022-10-02T04:57:58.549Z,66.70
2022-10-02T05:00:27.444Z,66.60
2022-10-02T05:03:17.815Z,66.80
2022-10-02T05:05:50.326Z,66.90
2022-10-02T05:08:38.245Z,67.00
2022-10-02T05:11:19.607Z,67.10
2022-10-02T05:14:04.982Z,67.00
2022-10-02T05:16:50.004Z,67.40
2022-10-02T05:19:40.123Z,68.00
2022-10-02T05:22:29.415Z,68.60
2022-10-02T05:25:29.505Z,69.30
2022-10-02T05:28:15.014Z,69.80
2022-10-02T05:30:49.936Z,70.10
2022-10-02T05:33:48.722Z,69.90
2022-10-02T05:36:24.668Z,70.20
2022-10-02T05:39:04.902Z,70.30
2022-10-02T05:41:59.414Z,70.30
2022-10-02T05:44:40.558Z,70.00
2022-10-02T05:47:12.892Z,69.70
2022-10-02T05:49:44.764Z,69.70
2022-10-02T05:52:25.958Z,69.70
2022-10-02T05:55:14.236Z,69.80
2022-10-02T05:57:45.079Z,69.70
2022-10-02T06:00:35.958Z,69.50
2022-10-02T06:03:15.183Z,69.50
2022-10-02T06:06:00.770Z,69.50
2022-10-02T06:08:41.082Z,69.80
2022-10-02T06:11:28.787Z,69.70
2022-10-02T06:14:21.873Z,69.60
2022-10-02T06:16:59.083Z,69.40
2022-10-02T06:19:34.520Z,69.20
2022-10-02T06:22:01.205Z,69.20
2022-10-02T06:24:46.923Z,69.30
2022-10-02T06:27:23.015Z,69.30
2022-10-02T06:29:57.802Z,69.10
2022-10-02T06:33:02.194Z,69.00
2022-10-02T06:35:42.986Z,69.10
2022-10-02T06:38:26.979Z,69.60
2022-10-02T06:41:20.486Z,69.10
2022-10-02T06:44:19.114Z,69.40
2022-10-02T06:47:22.163Z,69.30
2022-10-02T06:50:12.248Z,69.00
2022-10-02T06:53:00.057Z,69.30
2022-10-02T06:55:40.813Z,69.40
2022-10-02T06:58:13.367Z,69.30
2022-10-02T07:01:00.380Z,69.20
2022-10-02T07:03:32.180Z,69.20
2022-10-02T07:06:09.490Z,69.20
2022-10-02T07:08:54.087Z,69.20
2022-10-02T07:11:47.215Z,69.40
2022-10-02T07:14:38.795Z,69.60
2022-10-02T07:17:30.955Z,70.40
2022-10-02T07:20:30.960Z,70.10
2022-10-02T07:23:29.754Z,70.40
2022-10-02T07:26:15.439Z,70.50
2022-10-02T07:29:04.055Z,70.80
2022-10-02T07:31:59.459Z,70.90
2022-10-02T07:34:41.319Z,71.10
2022-10-02T07:37:26.204Z,71.20
2022-10-02T07:40:17.399Z,71.50
2022-10-02T07:43:12.796Z,71.90
2022-10-02T07:45:43.927Z,72.00
2022-10-02T07:48:22.364Z,72.00
2022-10-02T07:51:32.552Z,72.30
2022-10-02T07:54:16.421Z,72.10
2022-10-02T07:56:45.617Z,72.20
2022-10-02T07:59:16.400Z,72.20
2022-10-02T08:01:44.958Z,72.50
2022-10-02T08:04:13.669Z,72.50
2022-10-02T08:06:41.024Z,71.10
2022-10-02T08:09:12.220Z,72.00
2022-10-02T08:11:49.737Z,72.00
2022-10-02T08:14:38.753Z,72.20
2022-10-02T08:17:43.801Z,72.30
2022-10-02T08:20:29.613Z,72.30
2022-10-02T08:23:06.886Z,72.20
2022-10-02T08:25:49.627Z,72.30
2022-10-02T08:28:28.438Z,72.50
2022-10-02T08:30:55.100Z,72.60
2022-10-02T08:33:23.113Z,72.50
2022-10-02T08:36:32.893Z,72.50
2022-10-02T08:39:08.859Z,72.30
2022-10-02T08:42:05.458Z,72.90
2022-10-02T08:44:50.929Z,73.30
2022-10-02T08:47:30.181Z,73.70
2022-10-02T08:50:20.014Z,73.50
2022-10-02T08:53:11.463Z,73.70
2022-10-02T08:55:53.089Z,73.60
2022-10-02T08:58:53.988Z,73.50
2022-10-02T09:01:32.744Z,73.60
2022-10-02T09:04:23.426Z,73.90
2022-10-02T09:07:03.604Z,74.40
2022-10-02T09:09:46.729Z,74.50
2022-10-02T09:12:47.429Z,75.00
2022-10-02T09:15:21.071Z,74.90
2022-10-02T09:18:03.658Z,74.90
2022-10-02T09:20:42.345Z,74.60
2022-10-02T09:23:12.019Z,74.10
2022-10-02T09:25:58.624Z,74.20
2022-10-02T09:29:03.062Z,74.20
2022-10-02T09:31:54.409Z,73.50
2022-10-02T09:34:52.552Z,72.70
2022-10-02T09:37:41.705Z,73.30
2022-10-02T09:40:11.188Z,74.20
2022-10-02T09:42:57.354Z,73.40
2022-10-02T09:45:54.372Z,73.80
2022-10-02T09:48:21.060Z,74.60
2022-10-02T09:50:56.460Z,73.50
2022-10-02T09:54:11.166Z,73.10
2022-10-02T09:57:11.645Z,72.90
2022-10-02T10:00:00.531Z,72.60
2022-10-02T10:02:41.754Z,71.90
2022-10-02T10:05:40.830Z,71.20
2022-10-02T10:08:32.644Z,72.50
2022-10-02T10:11:00.631Z,72.40
2022-10-02T10:13:48.544Z,72.60
2022-10-02T10:16:33.858Z,72.40
2022-10-02T10:19:38.163Z,72.00
2022-10-02T10:22:23.655Z,72.70
2022-10-02T10:25:18.522Z,70.70
2022-10-02T10:28:19.899Z,72.60
2022-10-02T10:31:04.900Z,72.30
2022-10-02T10:34:00.504Z,71.70
2022-10-02T10:36:54.865Z,71.30
2022-10-02T10:39:40.336Z,71.70
2022-10-02T10:42:44.941Z,70.00
2022-10-02T10:45:31.314Z,70.90
2022-10-02T10:48:17.641Z,69.60
2022-10-02T10:51:20.861Z,68.70
2022-10-02T10:54:15.489Z,69.50
2022-10-02T10:56:54.515Z,70.10
2022-10-02T10:59:29.787Z,69.60
2022-10-02T11:02:39.947Z,70.00
2022-10-02T11:05:40.236Z,70.10
2022-10-02T11:08:18.295Z,70.10
2022-10-02T11:11:14.335Z,69.90
2022-10-02T11:14:06.548Z,70.00
2022-10-02T11:17:04.200Z,70.70
2022-10-02T11:19:37.248Z,71.10
2022-10-02T11:22:15.004Z,71.10
2022-10-02T11:24:50.437Z,71.80
2022-10-02T11:27:42.978Z,70.60
2022-10-02T11:30:22.103Z,71.30
2022-10-02T11:33:28.739Z,70.20
2022-10-02T11:36:04.400Z,69.60
2022-10-02T11:38:40.398Z,68.60
2022-10-02T11:41:26.894Z,67.60
2022-10-02T11:44:12.835Z,67.30
2022-10-02T11:46:58.880Z,66.70
2022-10-02T11:49:38.048Z,67.50
2022-10-02T11:52:19.469Z,67.60
2022-10-02T11:54:54.676Z,65.60
2022-10-02T11:57:52.316Z,67.80
2022-10-02T12:00:52.770Z,67.90
2022-10-02T12:03:55.085Z,68.30
2022-10-02T12:06:33.857Z,67.30
2022-10-02T12:09:16.914Z,67.80
2022-10-02T12:12:06.781Z,69.20
2022-10-02T12:15:14.893Z,66.40
2022-10-02T12:17:53.185Z,65.30
2022-10-02T12:21:14.297Z,66.00
2022-10-02T12:24:08.320Z,65.10
2022-10-02T12:27:10.092Z,64.10
2022-10-02T12:29:43.861Z,62.00
2022-10-02T12:32:22.498Z,62.50
2022-10-02T12:35:04.220Z,60.40
2022-10-02T12:37:45.303Z,59.80
2022-10-02T12:40:32.579Z,60.10
2022-10-02T12:51:54.550Z,61.30
2022-10-02T12:54:42.986Z,58.70
2022-10-02T12:57:48.075Z,58.40
2022-10-02T13:00:20.451Z,57.90
2022-10-02T13:03:15.295Z,58.00
2022-10-02T13:06:06.886Z,57.80
2022-10-02T13:08:43.084Z,57.60
2022-10-02T13:11:37.154Z,57.10
2022-10-02T13:14:35.140Z,55.90
2022-10-02T13:17:18.146Z,55.40
2022-10-02T13:20:11.183Z,55.50
2022-10-02T13:22:40.851Z,55.30
2022-10-02T13:25:58.717Z,56.80
2022-10-02T13:31:20.539Z,56.40
2022-10-02T13:34:06.414Z,56.00
2022-10-02T13:37:01.444Z,56.40
2022-10-02T13:39:33.977Z,55.20
2022-10-02T13:42:11.500Z,55.40
2022-10-02T13:44:50.056Z,55.30
2022-10-02T13:47:43.253Z,55.70
2022-10-02T13:50:59.239Z,54.40
2022-10-02T13:53:50.437Z,54.50
2022-10-02T13:56:36.499Z,53.10
2022-10-02T13:59:41.371Z,54.20
2022-10-02T14:02:16.760Z,52.70
2022-10-02T14:04:48.627Z,51.20
2022-10-02T14:07:52.296Z,52.50
2022-10-02T14:10:43.683Z,51.50
2022-10-02T14:13:23.301Z,51.80
2022-10-02T14:16:44.712Z,51.70
2022-10-02T14:19:14.017Z,53.10
2022-10-02T14:22:20.831Z,52.80
2022-10-02T14:25:20.364Z,51.70
2022-10-02T14:28:05.413Z,52.20
2022-10-02T14:30:57.842Z,53.30
2022-10-02T14:33:35.006Z,51.20
2022-10-02T14:36:15.576Z,52.70
2022-10-02T14:39:01.439Z,53.10
2022-10-02T14:41:37.957Z,53.80
2022-10-02T14:44:27.849Z,52.90
2022-10-02T14:47:26.401Z,53.10
2022-10-02T14:50:26.663Z,52.90
2022-10-02T14:53:28.638Z,55.40
2022-10-02T14:56:08.049Z,53.60
2022-10-02T14:58:47.632Z,54.70
2022-10-02T15:01:24.590Z,54.20
2022-10-02T15:04:23.330Z,53.80
2022-10-02T15:06:52.883Z,54.20
2022-10-02T15:09:36.869Z,53.10
2022-10-02T15:12:06.520Z,54.20
2022-10-02T15:14:54.776Z,54.90
2022-10-02T15:18:00.394Z,53.40
2022-10-02T15:20:37.484Z,54.10
2022-10-02T15:23:09.774Z,53.10
2022-10-02T15:25:47.332Z,52.60
2022-10-02T15:28:37.761Z,52.60
2022-10-02T15:31:27.985Z,53.90
2022-10-02T15:34:05.750Z,54.40
2022-10-02T15:36:54.313Z,55.20
2022-10-02T15:39:42.280Z,54.40
2022-10-02T15:42:10.836Z,54.50
2022-10-02T15:45:03.708Z,53.90
2022-10-02T15:47:49.861Z,53.00
2022-10-02T15:50:44.590Z,54.60
2022-10-02T15:53:33.552Z,53.30
2022-10-02T15:56:18.929Z,53.30
2022-10-02T15:59:03.346Z,52.70
2022-10-02T16:01:51.999Z,52.50
2022-10-02T16:04:37.160Z,52.40
2022-10-02T16:07:18.929Z,51.60
2022-10-02T16:09:53.430Z,51.60
2022-10-02T16:13:01.728Z,52.10
2022-10-02T16:15:53.261Z,51.90
2022-10-02T16:18:42.887Z,52.70
2022-10-02T16:21:22.513Z,52.60
2022-10-02T16:24:08.183Z,53.90
2022-10-02T16:26:43.766Z,53.10
2022-10-02T16:29:16.784Z,53.50
2022-10-02T16:32:03.261Z,53.60
2022-10-02T16:34:29.907Z,53.20
2022-10-02T16:37:15.907Z,53.50
2022-10-02T16:40:03.094Z,54.40
2022-10-02T16:42:48.102Z,54.40
2022-10-02T16:45:57.111Z,54.40
2022-10-02T16:48:41.515Z,54.20
2022-10-02T16:51:26.925Z,53.50
2022-10-02T16:54:09.349Z,53.50
2022-10-02T16:57:00.819Z,53.00
2022-10-02T16:59:38.351Z,53.90
2022-10-02T17:02:19.460Z,54.00
2022-10-02T17:05:02.055Z,53.90
2022-10-02T17:07:53.049Z,54.40
2022-10-02T17:10:49.010Z,54.10
2022-10-02T17:13:46.121Z,54.10
2022-10-02T17:16:20.910Z,53.80
2022-10-02T17:19:00.006Z,54.30
2022-10-02T17:22:08.313Z,54.60
2022-10-02T17:24:46.924Z,54.70
2022-10-02T17:27:20.299Z,55.40
2022-10-02T17:30:18.816Z,55.20
2022-10-02T17:32:51.560Z,55.40
2022-10-02T17:35:39.323Z,55.40
2022-10-02T17:38:27.999Z,56.20
2022-10-02T17:41:22.934Z,55.90
2022-10-02T17:44:10.645Z,55.80
2022-10-02T17:47:06.394Z,55.90
2022-10-02T17:49:33.129Z,55.70
2022-10-02T17:52:22.667Z,56.00
2022-10-02T17:55:13.214Z,56.60
2022-10-02T17:58:00.257Z,56.60
2022-10-02T18:00:27.717Z,57.10
2022-10-02T18:02:55.034Z,56.90
2022-10-02T18:05:56.731Z,56.90
2022-10-02T18:08:53.562Z,57.00
2022-10-02T18:11:43.232Z,57.00
2022-10-02T18:14:27.827Z,57.40
2022-10-02T18:17:05.967Z,57.20
2022-10-02T18:19:54.465Z,57.90
2022-10-02T18:23:07.372Z,57.50
2022-10-02T18:25:56.400Z,57.50
2022-10-02T18:28:40.263Z,57.30
2022-10-02T18:31:55.176Z,57.10
2022-10-02T18:34:43.839Z,57.60
2022-10-02T18:37:17.033Z,57.40
2022-10-02T18:40:10.293Z,57.20
2022-10-02T18:42:57.019Z,57.40
2022-10-02T18:45:55.978Z,57.70
2022-10-02T18:48:41.324Z,57.60
2022-10-02T18:51:36.616Z,57.50
2022-10-02T18:54:12.424Z,57.60
2022-10-02T18:57:11.122Z,57.60
2022-10-02T19:00:08.415Z,57.60
2022-10-02T19:02:59.593Z,57.60
2022-10-02T19:05:41.620Z,57.70
2022-10-02T19:08:23.731Z,58.00
2022-10-02T19:10:50.469Z,58.30
2022-10-02T19:13:27.521Z,58.20
2022-10-02T19:15:58.519Z,58.30
2022-10-02T19:18:30.526Z,58.10
2022-10-02T19:21:07.717Z,58.20
2022-10-02T19:23:38.758Z,57.90
2022-10-02T19:26:18.500Z,57.80
2022-10-02T19:28:49.494Z,57.80
2022-10-02T19:31:26.897Z,57.80
2022-10-02T19:34:20.739Z,57.80
2022-10-02T19:36:52.056Z,57.90
2022-10-02T19:39:33.138Z,57.90
2022-10-02T19:42:03.209Z,57.90
2022-10-02T19:44:34.871Z,58.10
2022-10-02T19:47:11.362Z,58.10
2022-10-02T19:49:40.548Z,57.90
2022-10-02T19:52:40.611Z,57.80
2022-10-02T19:55:29.079Z,58.00
2022-10-02T19:58:12.202Z,58.30
2022-10-02T20:00:39.196Z,59.30
2022-10-02T20:03:12.504Z,58.40
2022-10-02T20:05:39.931Z,58.00
2022-10-02T20:08:14.537Z,58.00
2022-10-02T20:11:10.207Z,57.70
2022-10-02T20:13:54.623Z,57.60
2022-10-02T20:16:44.612Z,58.00
2022-10-02T20:19:19.308Z,57.90
2022-10-02T20:21:54.191Z,58.20
2022-10-02T20:24:45.403Z,58.10
2022-10-02T20:27:31.216Z,58.20
2022-10-02T20:30:03.590Z,58.10
2022-10-02T20:32:37.173Z,57.90
2022-10-02T20:35:16.136Z,57.90
2022-10-02T20:37:45.491Z,58.40
2022-10-02T20:40:27.352Z,58.40
2022-10-02T20:43:24.446Z,58.30
2022-10-02T20:45:53.082Z,58.40
2022-10-02T20:49:08.954Z,58.50
2022-10-02T20:52:17.550Z,58.60
2022-10-02T20:55:17.966Z,58.60
2022-10-02T20:58:03.315Z,58.60
2022-10-02T21:01:04.508Z,58.90
2022-10-02T21:03:44.698Z,59.10
2022-10-02T21:06:57.608Z,59.40
2022-10-02T21:09:45.240Z,59.30
2022-10-02T21:12:12.020Z,59.40
2022-10-02T21:15:10.365Z,59.70
2022-10-02T21:17:55.532Z,59.80
2022-10-02T21:20:50.970Z,59.60
2022-10-02T21:23:45.935Z,59.80
2022-10-02T21:26:27.024Z,60.20
2022-10-02T21:29:18.487Z,60.40
2022-10-02T21:32:28.766Z,60.40
2022-10-02T21:35:16.799Z,60.30
2022-10-02T21:38:02.899Z,60.20
2022-10-02T21:40:42.497Z,60.30
2022-10-02T21:43:37.614Z,60.50
2022-10-02T21:46:07.175Z,60.40
2022-10-02T21:49:14.359Z,60.40
2022-10-02T21:52:18.824Z,60.40
2022-10-02T21:55:17.592Z,60.30
2022-10-02T21:58:05.330Z,60.70
2022-10-02T22:00:48.979Z,60.30
2022-10-02T22:03:45.563Z,60.40
2022-10-02T22:06:54.785Z,60.40
2022-10-02T22:09:37.950Z,60.60
2022-10-02T22:12:39.325Z,60.70
2022-10-02T22:15:20.521Z,60.60
2022-10-02T22:17:56.317Z,60.70
2022-10-02T22:20:55.146Z,60.60
2022-10-02T22:23:39.715Z,60.40
2022-10-02T22:26:18.705Z,60.30
2022-10-02T22:29:07.948Z,60.20
2022-10-02T22:32:17.469Z,60.20
2022-10-02T22:34:54.512Z,60.10
2022-10-02T22:37:51.100Z,60.30
2022-10-02T22:40:23.256Z,60.30
2022-10-02T22:42:56.536Z,60.20
2022-10-02T22:45:34.564Z,60.00
2022-10-02T22:48:09.914Z,59.80
2022-10-02T22:50:39.649Z,59.80
2022-10-02T22:53:27.261Z,59.90
2022-10-02T22:55:56.534Z,59.80
2022-10-02T22:58:41.720Z,59.80
2022-10-02T23:01:53.252Z,60.00
2022-10-02T23:04:44.296Z,59.90
2022-10-02T23:07:36.498Z,59.80
2022-10-02T23:10:16.503Z,59.90
2022-10-02T23:13:04.245Z,60.00
2022-10-02T23:15:35.699Z,60.20
2022-10-02T23:18:16.455Z,60.00
2022-10-02T23:20:50.198Z,60.00
2022-10-02T23:23:25.167Z,60.00
2022-10-02T23:26:06.711Z,59.90
2022-10-02T23:28:36.487Z,59.90
2022-10-02T23:31:24.096Z,60.00
2022-10-02T23:34:15.454Z,60.20
2022-10-02T23:36:57.120Z,60.20
2022-10-02T23:39:42.010Z,60.10
2022-10-02T23:42:14.875Z,60.00
2022-10-02T23:44:49.679Z,60.10
2022-10-02T23:47:42.178Z,60.60
2022-10-02T23:50:33.096Z,60.60
2022-10-02T23:53:12.987Z,60.60
2022-10-02T23:56:18.484Z,60.60
2022-10-02T23:58:53.023Z,60.60
